createdAt,value
2018-08-28T00:01:24.075Z,23.80
2018-08-28T00:03:56.657Z,23.80
2018-08-28T00:06:29.293Z,23.80
2018-08-28T00:09:02.638Z,23.80
2018-08-28T00:11:34.516Z,23.80
2018-08-28T00:14:07.140Z,23.80
2018-08-28T00:16:39.388Z,23.80
2018-08-28T00:19:11.818Z,23.80
2018-08-28T00:21:44.485Z,23.80
2018-08-28T00:24:17.140Z,23.80
2018-08-28T00:26:49.538Z,23.80
2018-08-28T00:29:22.551Z,23.80
2018-08-28T00:31:55.743Z,23.80
2018-08-28T00:34:27.614Z,23.80
2018-08-28T00:37:00.019Z,23.80
2018-08-28T00:39:33.003Z,23.90
2018-08-28T00:42:05.285Z,23.90
2018-08-28T00:44:37.603Z,23.90
2018-08-28T00:47:10.227Z,23.90
2018-08-28T00:49:42.686Z,23.90
2018-08-28T00:52:15.053Z,23.90
2018-08-28T00:54:46.880Z,23.90
2018-08-28T00:57:19.362Z,23.90
2018-08-28T00:59:51.903Z,23.90
2018-08-28T01:02:24.120Z,23.90
2018-08-28T01:04:56.503Z,23.90
2018-08-28T01:07:28.686Z,23.90
2018-08-28T01:10:01.037Z,23.90
2018-08-28T01:12:33.771Z,23.90
2018-08-28T01:15:07.039Z,23.90
2018-08-28T01:17:39.638Z,23.90
2018-08-28T01:20:13.124Z,23.90
2018-08-28T01:22:45.381Z,23.90
2018-08-28T01:25:18.165Z,23.90
2018-08-28T01:27:51.862Z,23.90
2018-08-28T01:30:29.188Z,23.90
2018-08-28T01:33:02.232Z,23.90
2018-08-28T01:35:35.064Z,23.80
2018-08-28T01:38:07.511Z,23.80
2018-08-28T01:40:39.610Z,23.80
2018-08-28T01:43:16.437Z,23.80
2018-08-28T01:45:48.820Z,23.70
2018-08-28T01:48:21.242Z,23.70
2018-08-28T01:50:53.833Z,23.70
2018-08-28T01:53:26.166Z,23.60
2018-08-28T01:55:58.349Z,23.60
2018-08-28T01:58:30.613Z,23.50
2018-08-28T02:01:03.045Z,23.50
2018-08-28T02:03:36.560Z,23.40
2018-08-28T02:06:09.435Z,23.40
2018-08-28T02:08:42.710Z,23.30
2018-08-28T02:11:14.649Z,23.30
2018-08-28T02:13:47.302Z,23.20
2018-08-28T02:16:19.525Z,23.10
2018-08-28T02:18:51.945Z,23.10
2018-08-28T02:21:24.500Z,23.10
2018-08-28T02:23:57.425Z,23.00
2018-08-28T02:26:29.810Z,22.90
2018-08-28T02:29:02.185Z,22.80
2018-08-28T02:31:34.464Z,22.80
2018-08-28T02:34:06.828Z,22.70
2018-08-28T02:36:39.431Z,22.60
2018-08-28T02:39:12.830Z,22.60
2018-08-28T02:41:44.872Z,22.50
2018-08-28T02:44:17.432Z,22.40
2018-08-28T02:46:50.262Z,22.30
2018-08-28T02:49:23.501Z,22.30
2018-08-28T02:51:55.885Z,22.20
2018-08-28T02:54:28.451Z,22.10
2018-08-28T02:57:00.941Z,22.00
2018-08-28T02:59:33.135Z,22.00
2018-08-28T03:02:05.838Z,21.90
2018-08-28T03:04:37.937Z,21.80
2018-08-28T03:07:10.627Z,21.70
2018-08-28T03:09:42.858Z,21.70
2018-08-28T03:12:15.303Z,21.60
2018-08-28T03:14:47.480Z,21.50
2018-08-28T03:17:19.944Z,21.50
2018-08-28T03:19:52.328Z,21.40
2018-08-28T03:22:24.617Z,21.30
2018-08-28T03:24:58.128Z,21.20
2018-08-28T03:27:30.397Z,21.10
2018-08-28T03:30:02.428Z,21.10
2018-08-28T03:32:34.285Z,21.00
2018-08-28T03:35:06.652Z,20.90
2018-08-28T03:37:41.190Z,20.90
2018-08-28T03:40:13.196Z,20.80
2018-08-28T03:42:45.630Z,20.70
2018-08-28T03:45:18.152Z,20.70
2018-08-28T03:47:51.365Z,20.60
2018-08-28T03:50:23.954Z,20.60
2018-08-28T03:52:56.288Z,20.50
2018-08-28T03:55:28.716Z,20.50
2018-08-28T03:58:01.388Z,20.40
2018-08-28T04:00:34.165Z,20.30
2018-08-28T04:03:06.156Z,20.20
2018-08-28T04:05:38.897Z,20.20
2018-08-28T04:08:11.618Z,20.10
2018-08-28T04:10:44.426Z,20.10
2018-08-28T04:13:16.950Z,20.00
2018-08-28T04:15:49.580Z,20.00
2018-08-28T04:18:22.213Z,19.90
2018-08-28T04:20:54.283Z,19.90
2018-08-28T04:23:26.206Z,19.80
2018-08-28T04:25:58.912Z,19.80
2018-08-28T04:28:32.156Z,19.70
2018-08-28T04:31:04.321Z,19.70
2018-08-28T04:33:36.712Z,19.60
2018-08-28T04:36:08.932Z,19.50
2018-08-28T04:38:41.044Z,19.50
2018-08-28T04:41:13.076Z,19.40
2018-08-28T04:43:44.929Z,19.40
2018-08-28T04:46:16.718Z,19.30
2018-08-28T04:48:49.628Z,19.30
2018-08-28T04:51:22.108Z,19.20
2018-08-28T04:53:55.052Z,19.10
2018-08-28T04:56:27.450Z,19.00
2018-08-28T04:59:01.000Z,19.00
2018-08-28T05:01:33.537Z,18.90
2018-08-28T05:04:05.779Z,18.90
2018-08-28T05:06:38.223Z,18.80
2018-08-28T05:09:10.658Z,18.80
2018-08-28T05:11:42.955Z,18.80
2018-08-28T05:14:15.306Z,18.70
2018-08-28T05:16:48.128Z,18.70
2018-08-28T05:19:20.883Z,18.60
2018-08-28T05:21:53.871Z,18.60
2018-08-28T05:24:26.641Z,18.50
2018-08-28T05:26:58.865Z,18.50
2018-08-28T05:29:31.257Z,18.50
2018-08-28T05:32:03.940Z,18.40
2018-08-28T05:34:36.353Z,18.40
2018-08-28T05:37:09.029Z,18.30
2018-08-28T05:39:41.339Z,18.30
2018-08-28T05:42:13.635Z,18.20
2018-08-28T05:44:46.217Z,18.30
2018-08-28T05:47:18.532Z,18.20
2018-08-28T05:49:50.865Z,18.10
2018-08-28T05:52:23.086Z,18.10
2018-08-28T05:54:55.642Z,18.10
2018-08-28T05:57:28.162Z,18.00
2018-08-28T06:00:00.476Z,17.90
2018-08-28T06:02:32.853Z,17.80
2018-08-28T06:05:05.567Z,17.70
2018-08-28T06:07:38.252Z,17.70
2018-08-28T06:10:10.764Z,17.60
2018-08-28T06:12:43.063Z,17.60
2018-08-28T06:15:15.453Z,17.50
2018-08-28T06:17:48.005Z,17.40
2018-08-28T06:20:20.362Z,17.40
2018-08-28T06:22:52.769Z,17.20
2018-08-28T06:25:25.101Z,17.10
2018-08-28T06:27:57.681Z,17.10
2018-08-28T06:30:30.052Z,17.00
2018-08-28T06:33:02.407Z,17.00
2018-08-28T06:35:34.660Z,16.90
2018-08-28T06:38:07.176Z,16.80
2018-08-28T06:40:39.740Z,16.80
2018-08-28T06:43:12.309Z,16.70
2018-08-28T06:45:45.084Z,16.60
2018-08-28T06:48:17.435Z,16.50
2018-08-28T06:50:49.924Z,16.40
2018-08-28T06:53:22.284Z,16.40
2018-08-28T06:55:54.744Z,16.40
2018-08-28T06:58:27.761Z,16.30
2018-08-28T07:00:59.761Z,16.30
2018-08-28T07:03:32.354Z,16.30
2018-08-28T07:06:04.611Z,16.20
2018-08-28T07:08:37.523Z,16.20
2018-08-28T07:11:09.710Z,16.10
2018-08-28T07:13:42.075Z,16.10
2018-08-28T07:16:14.529Z,16.00
2018-08-28T07:18:46.912Z,16.00
2018-08-28T07:21:19.207Z,16.00
2018-08-28T07:23:51.984Z,15.80
2018-08-28T07:26:24.349Z,15.70
2018-08-28T07:28:57.283Z,15.70
2018-08-28T07:31:29.702Z,15.60
2018-08-28T07:34:01.744Z,15.50
2018-08-28T07:36:34.123Z,15.50
2018-08-28T07:39:07.784Z,15.50
2018-08-28T07:41:40.095Z,15.40
2018-08-28T07:44:12.535Z,15.40
2018-08-28T07:46:44.893Z,15.40
2018-08-28T07:49:17.057Z,15.30
2018-08-28T07:51:49.224Z,15.30
2018-08-28T07:54:21.665Z,15.20
2018-08-28T07:56:53.985Z,15.20
2018-08-28T07:59:26.278Z,15.20
2018-08-28T08:01:58.364Z,15.10
2018-08-28T08:04:30.828Z,15.00
2018-08-28T08:07:03.443Z,15.00
2018-08-28T08:09:35.828Z,15.00
2018-08-28T08:12:08.357Z,15.00
2018-08-28T08:14:40.735Z,14.90
2018-08-28T08:17:13.174Z,14.80
2018-08-28T08:19:45.672Z,14.80
2018-08-28T08:22:17.899Z,14.80
2018-08-28T08:24:50.435Z,14.70
2018-08-28T08:27:23.214Z,14.80
2018-08-28T08:29:55.622Z,14.70
2018-08-28T08:32:27.784Z,14.70
2018-08-28T08:34:59.925Z,14.60
2018-08-28T08:37:32.138Z,14.60
2018-08-28T08:40:04.493Z,14.60
2018-08-28T08:42:36.680Z,14.60
2018-08-28T08:45:09.251Z,14.50
2018-08-28T08:47:41.572Z,14.50
2018-08-28T08:50:14.046Z,14.40
2018-08-28T08:52:46.664Z,14.40
2018-08-28T08:55:19.121Z,14.40
2018-08-28T08:57:51.383Z,14.30
2018-08-28T09:00:23.844Z,14.30
2018-08-28T09:02:56.029Z,14.30
2018-08-28T09:05:28.481Z,14.20
2018-08-28T09:08:01.183Z,14.20
2018-08-28T09:10:33.795Z,14.20
2018-08-28T09:13:06.412Z,14.20
2018-08-28T09:15:38.471Z,14.20
2018-08-28T09:18:11.131Z,14.10
2018-08-28T09:20:43.469Z,14.10
2018-08-28T09:23:15.772Z,14.10
2018-08-28T09:25:48.253Z,14.10
2018-08-28T09:28:20.775Z,14.00
2018-08-28T09:30:53.731Z,13.90
2018-08-28T09:33:26.341Z,13.90
2018-08-28T09:35:58.639Z,13.90
2018-08-28T09:38:31.163Z,13.90
2018-08-28T09:41:03.764Z,13.90
2018-08-28T09:43:36.508Z,13.80
2018-08-28T09:46:08.898Z,13.80
2018-08-28T09:48:41.463Z,13.80
2018-08-28T09:51:14.018Z,13.80
2018-08-28T09:53:46.660Z,13.70
2018-08-28T09:56:18.937Z,13.70
2018-08-28T09:58:51.649Z,13.60
2018-08-28T10:01:28.540Z,13.60
2018-08-28T10:04:00.641Z,13.60
2018-08-28T10:06:33.052Z,13.50
2018-08-28T10:09:05.995Z,13.50
2018-08-28T10:11:38.478Z,13.50
2018-08-28T10:14:11.484Z,13.50
2018-08-28T10:16:43.667Z,13.40
2018-08-28T10:19:16.156Z,13.40
2018-08-28T10:21:48.857Z,13.30
2018-08-28T10:24:21.093Z,13.20
2018-08-28T10:26:53.679Z,13.20
2018-08-28T10:29:26.743Z,13.20
2018-08-28T10:31:59.376Z,13.20
2018-08-28T10:34:31.758Z,13.40
2018-08-28T10:37:03.876Z,13.20
2018-08-28T10:39:36.448Z,13.10
2018-08-28T10:42:08.851Z,13.10
2018-08-28T10:44:41.388Z,13.10
2018-08-28T10:47:13.594Z,13.10
2018-08-28T10:49:45.927Z,13.00
2018-08-28T10:52:18.208Z,13.00
2018-08-28T10:54:50.622Z,13.00
2018-08-28T10:57:23.000Z,13.00
2018-08-28T10:59:55.928Z,12.90
2018-08-28T11:02:28.346Z,12.90
2018-08-28T11:05:00.981Z,12.90
2018-08-28T11:07:33.647Z,12.90
2018-08-28T11:10:06.131Z,12.80
2018-08-28T11:12:38.263Z,12.80
2018-08-28T11:15:10.659Z,12.70
2018-08-28T11:17:43.323Z,12.70
2018-08-28T11:20:16.224Z,12.70
2018-08-28T11:22:48.345Z,12.70
2018-08-28T11:25:20.716Z,12.60
2018-08-28T11:27:52.709Z,12.50
2018-08-28T11:30:25.044Z,12.50
2018-08-28T11:32:57.563Z,12.50
2018-08-28T11:35:30.192Z,12.50
2018-08-28T11:38:02.527Z,12.50
2018-08-28T11:40:34.833Z,12.40
2018-08-28T11:43:06.960Z,12.50
2018-08-28T11:45:39.424Z,12.40
2018-08-28T11:48:12.028Z,12.40
2018-08-28T11:50:44.395Z,12.30
2018-08-28T11:53:16.631Z,12.40
2018-08-28T11:55:49.134Z,12.30
2018-08-28T11:58:21.702Z,12.30
2018-08-28T12:00:53.929Z,12.30
2018-08-28T12:03:26.342Z,12.30
2018-08-28T12:05:58.850Z,12.30
2018-08-28T12:08:31.310Z,12.30
2018-08-28T12:11:03.683Z,12.60
2018-08-28T12:13:36.256Z,12.30
2018-08-28T12:16:08.598Z,12.30
2018-08-28T12:18:41.184Z,12.30
2018-08-28T12:21:13.584Z,12.30
2018-08-28T12:23:45.754Z,12.20
2018-08-28T12:26:17.923Z,12.20
2018-08-28T12:28:50.209Z,12.20
2018-08-28T12:31:22.938Z,12.20
2018-08-28T12:33:55.011Z,12.20
2018-08-28T12:36:27.473Z,12.10
2018-08-28T12:38:59.787Z,12.10
2018-08-28T12:41:33.548Z,12.10
2018-08-28T12:44:06.242Z,12.20
2018-08-28T12:46:38.331Z,12.10
2018-08-28T12:49:10.710Z,12.00
2018-08-28T12:51:42.959Z,12.10
2018-08-28T12:54:15.265Z,12.00
2018-08-28T12:56:50.511Z,12.00
2018-08-28T12:59:23.034Z,12.00
2018-08-28T13:01:55.496Z,12.00
2018-08-28T13:04:28.039Z,11.90
2018-08-28T13:07:00.605Z,11.90
2018-08-28T13:09:32.522Z,11.90
2018-08-28T13:12:05.268Z,11.90
2018-08-28T13:14:37.765Z,11.90
2018-08-28T13:17:10.258Z,12.10
2018-08-28T13:19:42.859Z,11.90
2018-08-28T13:22:15.469Z,11.90
2018-08-28T13:24:48.144Z,11.80
2018-08-28T13:27:20.477Z,11.80
2018-08-28T13:29:53.489Z,11.80
2018-08-28T13:32:25.873Z,11.80
2018-08-28T13:34:58.815Z,11.70
2018-08-28T13:37:31.853Z,11.70
2018-08-28T13:40:04.385Z,11.70
2018-08-28T13:42:36.800Z,11.70
2018-08-28T13:45:09.238Z,11.70
2018-08-28T13:47:41.558Z,11.70
2018-08-28T13:50:13.848Z,11.70
2018-08-28T13:52:45.976Z,11.70
2018-08-28T13:55:18.333Z,11.70
2018-08-28T13:57:50.769Z,11.70
2018-08-28T14:00:23.136Z,11.80
2018-08-28T14:02:55.839Z,11.80
2018-08-28T14:05:28.327Z,11.80
2018-08-28T14:08:01.325Z,11.80
2018-08-28T14:10:34.016Z,11.90
2018-08-28T14:13:06.604Z,12.00
2018-08-28T14:15:39.078Z,12.00
2018-08-28T14:18:11.653Z,12.10
2018-08-28T14:20:44.047Z,12.20
2018-08-28T14:23:16.757Z,12.20
2018-08-28T14:25:50.137Z,12.30
2018-08-28T14:28:22.554Z,12.60
2018-08-28T14:30:55.768Z,12.50
2018-08-28T14:33:28.251Z,12.70
2018-08-28T14:36:00.436Z,12.80
2018-08-28T14:38:34.153Z,12.90
2018-08-28T14:41:06.678Z,12.90
2018-08-28T14:43:38.992Z,13.10
2018-08-28T14:46:11.622Z,13.20
2018-08-28T14:48:44.336Z,13.40
2018-08-28T14:51:16.784Z,13.50
2018-08-28T14:53:49.055Z,13.60
2018-08-28T14:56:21.702Z,13.80
2018-08-28T14:58:54.101Z,14.00
2018-08-28T15:01:26.821Z,14.20
2018-08-28T15:03:59.217Z,14.30
2018-08-28T15:06:31.782Z,14.40
2018-08-28T15:09:04.998Z,14.50
2018-08-28T15:11:37.688Z,14.60
2018-08-28T15:14:10.472Z,14.70
2018-08-28T15:16:42.987Z,14.80
2018-08-28T15:19:15.510Z,15.00
2018-08-28T15:21:48.066Z,15.20
2018-08-28T15:24:20.474Z,15.50
2018-08-28T15:26:53.140Z,15.90
2018-08-28T15:29:25.865Z,16.30
2018-08-28T15:31:58.507Z,16.60
2018-08-28T15:34:30.880Z,16.90
2018-08-28T15:37:03.658Z,17.00
2018-08-28T15:39:36.077Z,17.10
2018-08-28T15:42:08.493Z,17.20
2018-08-28T15:44:40.923Z,17.20
2018-08-28T15:47:13.440Z,17.40
2018-08-28T15:49:46.107Z,17.70
2018-08-28T15:52:18.332Z,18.20
2018-08-28T15:54:50.927Z,19.00
2018-08-28T15:57:23.278Z,19.80
2018-08-28T15:59:55.631Z,20.70
2018-08-28T16:02:28.377Z,21.70
2018-08-28T16:05:00.885Z,22.70
2018-08-28T16:07:33.751Z,23.80
2018-08-28T16:10:06.405Z,24.80
2018-08-28T16:12:38.859Z,25.90
2018-08-28T16:15:11.658Z,26.60
2018-08-28T16:17:44.093Z,26.80
2018-08-28T16:20:16.622Z,27.20
2018-08-28T16:23:05.603Z,28.10
2018-08-28T16:25:38.068Z,28.50
2018-08-28T16:28:10.767Z,28.90
2018-08-28T16:30:43.902Z,29.20
2018-08-28T16:33:16.588Z,29.50
2018-08-28T16:35:49.446Z,29.50
2018-08-28T16:38:23.339Z,29.80
2018-08-28T16:40:55.588Z,30.20
2018-08-28T16:43:28.163Z,30.30
2018-08-28T16:46:00.706Z,30.40
2018-08-28T16:48:33.291Z,29.50
2018-08-28T16:51:05.942Z,29.20
2018-08-28T16:53:38.436Z,27.80
2018-08-28T16:56:10.546Z,27.20
2018-08-28T16:58:43.507Z,26.80
2018-08-28T17:01:16.169Z,26.60
2018-08-28T17:03:48.707Z,26.10
2018-08-28T17:06:21.146Z,25.80
2018-08-28T17:08:53.861Z,24.90
2018-08-28T17:11:26.761Z,24.50
2018-08-28T17:13:59.652Z,24.20
2018-08-28T17:16:32.115Z,23.90
2018-08-28T17:19:04.887Z,23.90
2018-08-28T17:21:37.492Z,23.70
2018-08-28T17:24:10.210Z,23.60
2018-08-28T17:26:43.170Z,23.40
2018-08-28T17:29:16.077Z,23.40
2018-08-28T17:31:49.241Z,23.30
2018-08-28T17:34:21.792Z,23.30
2018-08-28T17:36:54.330Z,23.20
2018-08-28T17:39:27.217Z,22.90
2018-08-28T17:42:00.029Z,22.80
2018-08-28T17:44:32.563Z,22.80
2018-08-28T17:47:05.382Z,22.50
2018-08-28T17:49:38.301Z,22.40
2018-08-28T17:52:11.702Z,22.30
2018-08-28T17:54:44.347Z,22.30
2018-08-28T17:57:17.174Z,22.30
2018-08-28T17:59:50.113Z,22.00
2018-08-28T18:02:23.488Z,22.10
2018-08-28T18:04:56.253Z,22.00
2018-08-28T18:07:29.042Z,22.10
2018-08-28T18:10:01.941Z,22.00
2018-08-28T18:12:34.525Z,22.20
2018-08-28T18:15:08.394Z,22.20
2018-08-28T18:17:41.242Z,22.20
2018-08-28T18:20:14.121Z,22.00
2018-08-28T18:22:46.916Z,22.10
2018-08-28T18:25:19.675Z,22.10
2018-08-28T18:27:52.376Z,22.20
2018-08-28T18:30:24.956Z,22.30
2018-08-28T18:32:57.890Z,22.20
2018-08-28T18:35:30.342Z,22.40
2018-08-28T18:38:03.196Z,22.40
2018-08-28T18:40:36.037Z,22.50
2018-08-28T18:43:08.671Z,22.60
2018-08-28T18:45:41.545Z,22.70
2018-08-28T18:48:15.579Z,22.80
2018-08-28T18:50:48.403Z,22.90
2018-08-28T18:53:21.148Z,23.10
2018-08-28T18:55:53.481Z,23.10
2018-08-28T18:58:26.578Z,23.20
2018-08-28T19:00:59.365Z,23.30
2018-08-28T19:03:32.244Z,23.30
2018-08-28T19:06:04.842Z,23.40
2018-08-28T19:08:37.531Z,23.40
2018-08-28T19:11:09.958Z,23.60
2018-08-28T19:13:42.740Z,23.90
2018-08-28T19:16:15.019Z,24.20
2018-08-28T19:18:47.605Z,24.40
2018-08-28T19:21:20.151Z,24.60
2018-08-28T19:23:53.090Z,24.80
2018-08-28T19:26:25.745Z,24.80
2018-08-28T19:28:58.722Z,24.90
2018-08-28T19:31:31.654Z,24.80
2018-08-28T19:34:04.000Z,24.80
2018-08-28T19:36:36.384Z,24.90
2018-08-28T19:39:09.419Z,25.00
2018-08-28T19:41:42.360Z,25.20
2018-08-28T19:44:16.929Z,25.30
2018-08-28T19:46:49.561Z,25.40
2018-08-28T19:49:22.352Z,25.40
2018-08-28T19:51:54.903Z,25.60
2018-08-28T19:54:27.767Z,25.60
2018-08-28T19:57:00.371Z,25.70
2018-08-28T19:59:32.818Z,25.70
2018-08-28T20:02:05.659Z,25.90
2018-08-28T20:04:38.158Z,25.80
2018-08-28T20:07:10.433Z,25.80
2018-08-28T20:09:43.194Z,26.00
2018-08-28T20:12:15.747Z,26.00
2018-08-28T20:14:48.094Z,26.00
2018-08-28T20:17:21.160Z,26.00
2018-08-28T20:19:53.866Z,26.10
2018-08-28T20:22:26.170Z,26.20
2018-08-28T20:24:59.152Z,26.20
2018-08-28T20:27:31.546Z,26.30
2018-08-28T20:30:04.338Z,26.50
2018-08-28T20:32:36.861Z,26.40
2018-08-28T20:35:09.535Z,26.40
2018-08-28T20:37:42.227Z,26.40
2018-08-28T20:40:14.732Z,26.40
2018-08-28T20:42:47.709Z,26.50
2018-08-28T20:45:20.199Z,26.50
2018-08-28T20:47:52.780Z,26.60
2018-08-28T20:50:25.254Z,26.60
2018-08-28T20:52:57.727Z,26.80
2018-08-28T20:55:30.147Z,26.80
2018-08-28T20:58:02.610Z,26.90
2018-08-28T21:00:37.129Z,27.00
2018-08-28T21:03:09.360Z,27.10
2018-08-28T21:05:41.967Z,27.10
2018-08-28T21:08:15.071Z,27.20
2018-08-28T21:10:47.577Z,27.30
2018-08-28T21:13:20.246Z,27.30
2018-08-28T21:15:52.744Z,27.30
2018-08-28T21:18:25.110Z,27.40
2018-08-28T21:20:57.585Z,27.50
2018-08-28T21:23:29.916Z,27.50
2018-08-28T21:26:02.489Z,27.50
2018-08-28T21:28:34.735Z,27.60
2018-08-28T21:31:07.467Z,27.70
2018-08-28T21:33:40.078Z,27.80
2018-08-28T21:36:12.601Z,27.80
2018-08-28T21:38:45.091Z,27.70
2018-08-28T21:41:17.149Z,27.80
2018-08-28T21:43:49.229Z,27.80
2018-08-28T21:46:21.898Z,27.80
2018-08-28T21:48:54.139Z,27.90
2018-08-28T21:51:26.718Z,27.90
2018-08-28T21:53:58.796Z,27.90
2018-08-28T21:56:31.143Z,28.00
2018-08-28T21:59:03.512Z,28.20
2018-08-28T22:01:36.001Z,28.10
2018-08-28T22:04:08.467Z,28.20
2018-08-28T22:06:45.318Z,28.20
2018-08-28T22:09:18.224Z,28.30
2018-08-28T22:11:50.577Z,28.30
2018-08-28T22:14:23.212Z,28.40
2018-08-28T22:16:55.582Z,28.30
2018-08-28T22:19:28.040Z,28.40
2018-08-28T22:22:00.263Z,28.40
2018-08-28T22:24:32.707Z,28.50
2018-08-28T22:27:05.376Z,28.50
2018-08-28T22:29:37.956Z,28.50
2018-08-28T22:32:10.543Z,28.50
2018-08-28T22:34:42.903Z,28.60
2018-08-28T22:37:15.614Z,28.60
2018-08-28T22:39:47.944Z,28.60
2018-08-28T22:42:20.891Z,28.70
2018-08-28T22:44:53.227Z,28.80
2018-08-28T22:47:25.481Z,28.80
2018-08-28T22:49:58.192Z,28.80
2018-08-28T22:52:30.608Z,28.90
2018-08-28T22:55:02.785Z,28.90
2018-08-28T22:57:35.073Z,29.00
2018-08-28T23:00:07.877Z,29.00
2018-08-28T23:02:40.296Z,29.00
2018-08-28T23:05:12.716Z,29.00
2018-08-28T23:07:45.083Z,29.10
2018-08-28T23:10:17.128Z,29.00
2018-08-28T23:12:50.566Z,29.10
2018-08-28T23:15:22.907Z,29.10
2018-08-28T23:17:55.763Z,29.00
2018-08-28T23:20:28.710Z,29.00
2018-08-28T23:23:02.262Z,29.00
2018-08-28T23:25:34.978Z,29.00
2018-08-28T23:28:07.488Z,29.10
2018-08-28T23:30:40.006Z,29.10
2018-08-28T23:33:12.644Z,29.10
2018-08-28T23:35:44.923Z,29.10
2018-08-28T23:38:18.144Z,29.10
2018-08-28T23:40:51.427Z,29.20
2018-08-28T23:43:24.599Z,29.10
2018-08-28T23:45:56.923Z,29.10
2018-08-28T23:48:30.036Z,29.10
2018-08-28T23:51:02.567Z,29.20
2018-08-28T23:53:35.826Z,29.20
2018-08-28T23:56:11.058Z,29.20
2018-08-28T23:58:43.201Z,29.30
